sensor_id;sensor_type;location;lat;lon;timestamp;pressure;altitude;pressure_sealevel;temperature;humidity
62055;BME280;48653;51.742;-1.256;2023-03-14T00:03:44;98144.47;;;6.17;63.98
62055;BME280;48653;51.742;-1.256;2023-03-14T00:06:10;98153.79;;;6.92;63.55
62055;BME280;48653;51.742;-1.256;2023-03-14T00:08:34;98166.55;;;6.89;62.94
62055;BME280;48653;51.742;-1.256;2023-03-14T00:11:04;98170.51;;;6.09;64.42
62055;BME280;48653;51.742;-1.256;2023-03-14T00:13:24;98173.69;;;6.19;64.60
62055;BME280;48653;51.742;-1.256;2023-03-14T00:15:49;98182.84;;;6.42;63.14
62055;BME280;48653;51.742;-1.256;2023-03-14T00:18:14;98184.85;;;6.24;63.36
62055;BME280;48653;51.742;-1.256;2023-03-14T00:20:39;98197.57;;;6.67;63.34
62055;BME280;48653;51.742;-1.256;2023-03-14T00:23:04;98208.37;;;6.70;62.53
62055;BME280;48653;51.742;-1.256;2023-03-14T00:25:29;98212.17;;;6.99;61.20
62055;BME280;48653;51.742;-1.256;2023-03-14T00:27:54;98215.98;;;6.80;62.03
62055;BME280;48653;51.742;-1.256;2023-03-14T00:30:20;98223.58;;;7.65;59.92
62055;BME280;48653;51.742;-1.256;2023-03-14T00:32:45;98242.17;;;6.92;60.66
62055;BME280;48653;51.742;-1.256;2023-03-14T00:35:10;98246.03;;;6.94;61.16
62055;BME280;48653;51.742;-1.256;2023-03-14T00:37:35;98254.94;;;7.36;60.54
62055;BME280;48653;51.742;-1.256;2023-03-14T00:40:00;98261.35;;;6.79;62.30
62055;BME280;48653;51.742;-1.256;2023-03-14T00:42:25;98268.24;;;7.30;60.20
62055;BME280;48653;51.742;-1.256;2023-03-14T00:44:50;98279.45;;;6.60;62.30
62055;BME280;48653;51.742;-1.256;2023-03-14T00:47:15;98286.59;;;6.44;63.10
62055;BME280;48653;51.742;-1.256;2023-03-14T00:49:40;98296.49;;;6.27;62.36
62055;BME280;48653;51.742;-1.256;2023-03-14T00:52:05;98309.08;;;5.83;63.17
62055;BME280;48653;51.742;-1.256;2023-03-14T00:54:30;98302.50;;;6.33;61.82
62055;BME280;48653;51.742;-1.256;2023-03-14T00:56:55;98305.28;;;6.10;62.21
62055;BME280;48653;51.742;-1.256;2023-03-14T00:59:21;98312.12;;;6.25;61.44
62055;BME280;48653;51.742;-1.256;2023-03-14T01:01:45;98318.55;;;6.17;60.35
62055;BME280;48653;51.742;-1.256;2023-03-14T01:04:11;98320.08;;;5.60;61.22
62055;BME280;48653;51.742;-1.256;2023-03-14T01:06:36;98332.42;;;6.56;59.79
62055;BME280;48653;51.742;-1.256;2023-03-14T01:09:01;98340.32;;;5.93;60.01
62055;BME280;48653;51.742;-1.256;2023-03-14T01:11:28;98355.31;;;5.88;59.77
62055;BME280;48653;51.742;-1.256;2023-03-14T01:13:52;98358.12;;;5.39;60.58
62055;BME280;48653;51.742;-1.256;2023-03-14T01:16:18;98373.23;;;5.57;60.42
62055;BME280;48653;51.742;-1.256;2023-03-14T01:18:43;98382.49;;;5.12;61.91
62055;BME280;48653;51.742;-1.256;2023-03-14T01:21:11;98395.11;;;6.10;59.71
62055;BME280;48653;51.742;-1.256;2023-03-14T01:23:32;98400.46;;;5.45;60.22
62055;BME280;48653;51.742;-1.256;2023-03-14T01:25:57;98411.02;;;5.76;59.24
62055;BME280;48653;51.742;-1.256;2023-03-14T01:28:22;98412.76;;;5.21;60.18
62055;BME280;48653;51.742;-1.256;2023-03-14T01:30:47;98428.29;;;5.02;60.68
62055;BME280;48653;51.742;-1.256;2023-03-14T01:33:12;98429.58;;;5.57;58.99
62055;BME280;48653;51.742;-1.256;2023-03-14T01:35:37;98437.98;;;5.88;57.66
62055;BME280;48653;51.742;-1.256;2023-03-14T01:38:02;98443.44;;;5.35;59.53
62055;BME280;48653;51.742;-1.256;2023-03-14T01:40:27;98446.36;;;6.33;57.43
62055;BME280;48653;51.742;-1.256;2023-03-14T01:42:56;98461.19;;;5.94;56.88
62055;BME280;48653;51.742;-1.256;2023-03-14T01:47:42;98476.69;;;5.80;58.13
62055;BME280;48653;51.742;-1.256;2023-03-14T01:50:11;98480.96;;;5.33;57.95
62055;BME280;48653;51.742;-1.256;2023-03-14T01:52:36;98484.87;;;4.96;58.53
62055;BME280;48653;51.742;-1.256;2023-03-14T01:55:02;98493.51;;;5.17;57.48
62055;BME280;48653;51.742;-1.256;2023-03-14T01:57:27;98495.93;;;4.86;57.16
62055;BME280;48653;51.742;-1.256;2023-03-14T01:59:54;98511.83;;;4.47;56.66
62055;BME280;48653;51.742;-1.256;2023-03-14T02:02:15;98512.96;;;4.84;55.57
62055;BME280;48653;51.742;-1.256;2023-03-14T02:04:40;98516.48;;;5.34;54.27
62055;BME280;48653;51.742;-1.256;2023-03-14T02:07:10;98520.39;;;5.48;53.64
62055;BME280;48653;51.742;-1.256;2023-03-14T02:09:30;98524.69;;;5.54;52.63
62055;BME280;48653;51.742;-1.256;2023-03-14T02:11:54;98531.70;;;5.28;53.32
62055;BME280;48653;51.742;-1.256;2023-03-14T02:14:28;98532.43;;;5.12;53.87
62055;BME280;48653;51.742;-1.256;2023-03-14T02:16:44;98536.75;;;5.52;52.58
62055;BME280;48653;51.742;-1.256;2023-03-14T02:19:10;98539.95;;;5.64;51.84
62055;BME280;48653;51.742;-1.256;2023-03-14T02:21:43;98545.73;;;5.14;51.67
62055;BME280;48653;51.742;-1.256;2023-03-14T02:24:07;98549.92;;;4.78;52.30
62055;BME280;48653;51.742;-1.256;2023-03-14T02:26:28;98561.86;;;4.56;52.79
62055;BME280;48653;51.742;-1.256;2023-03-14T02:28:50;98566.19;;;4.96;52.74
62055;BME280;48653;51.742;-1.256;2023-03-14T02:31:15;98567.61;;;4.11;53.84
62055;BME280;48653;51.742;-1.256;2023-03-14T02:33:40;98574.39;;;4.34;53.55
62055;BME280;48653;51.742;-1.256;2023-03-14T02:36:08;98581.90;;;4.53;53.35
62055;BME280;48653;51.742;-1.256;2023-03-14T02:38:33;98587.71;;;4.65;51.17
62055;BME280;48653;51.742;-1.256;2023-03-14T02:40:55;98588.22;;;4.43;50.80
62055;BME280;48653;51.742;-1.256;2023-03-14T02:43:20;98600.93;;;3.99;51.19
62055;BME280;48653;51.742;-1.256;2023-03-14T02:45:46;98599.84;;;4.17;51.27
62055;BME280;48653;51.742;-1.256;2023-03-14T02:48:15;98597.11;;;3.88;51.47
62055;BME280;48653;51.742;-1.256;2023-03-14T02:50:35;98604.49;;;3.88;51.92
62055;BME280;48653;51.742;-1.256;2023-03-14T02:53:01;98612.13;;;4.35;50.75
62055;BME280;48653;51.742;-1.256;2023-03-14T02:55:26;98619.78;;;4.19;49.47
62055;BME280;48653;51.742;-1.256;2023-03-14T02:57:51;98630.57;;;4.34;49.83
62055;BME280;48653;51.742;-1.256;2023-03-14T03:00:17;98631.96;;;4.26;50.69
62055;BME280;48653;51.742;-1.256;2023-03-14T03:02:41;98652.56;;;4.22;51.06
62055;BME280;48653;51.742;-1.256;2023-03-14T03:05:07;98663.78;;;4.45;50.39
62055;BME280;48653;51.742;-1.256;2023-03-14T03:07:31;98666.36;;;4.29;50.58
62055;BME280;48653;51.742;-1.256;2023-03-14T03:09:56;98666.09;;;4.25;51.06
62055;BME280;48653;51.742;-1.256;2023-03-14T03:12:22;98674.63;;;3.76;52.39
62055;BME280;48653;51.742;-1.256;2023-03-14T03:14:47;98681.07;;;3.89;53.34
62055;BME280;48653;51.742;-1.256;2023-03-14T03:17:12;98685.59;;;3.25;54.45
62055;BME280;48653;51.742;-1.256;2023-03-14T03:19:38;98692.94;;;3.42;54.48
62055;BME280;48653;51.742;-1.256;2023-03-14T03:22:02;98685.23;;;3.58;53.71
62055;BME280;48653;51.742;-1.256;2023-03-14T03:24:28;98689.16;;;3.69;52.86
62055;BME280;48653;51.742;-1.256;2023-03-14T03:26:53;98691.93;;;3.33;53.35
62055;BME280;48653;51.742;-1.256;2023-03-14T03:29:18;98696.43;;;3.63;52.67
62055;BME280;48653;51.742;-1.256;2023-03-14T03:31:43;98697.68;;;4.01;51.74
62055;BME280;48653;51.742;-1.256;2023-03-14T03:34:08;98717.64;;;3.99;51.71
62055;BME280;48653;51.742;-1.256;2023-03-14T03:36:35;98713.14;;;3.76;51.81
62055;BME280;48653;51.742;-1.256;2023-03-14T03:38:58;98725.10;;;3.72;51.52
62055;BME280;48653;51.742;-1.256;2023-03-14T03:41:24;98736.88;;;3.22;52.50
62055;BME280;48653;51.742;-1.256;2023-03-14T03:43:49;98746.16;;;3.73;51.23
62055;BME280;48653;51.742;-1.256;2023-03-14T03:46:14;98747.61;;;3.78;51.46
62055;BME280;48653;51.742;-1.256;2023-03-14T03:48:39;98758.31;;;3.76;51.34
62055;BME280;48653;51.742;-1.256;2023-03-14T03:51:04;98757.04;;;3.45;51.96
62055;BME280;48653;51.742;-1.256;2023-03-14T03:53:30;98764.34;;;3.58;50.83
62055;BME280;48653;51.742;-1.256;2023-03-14T03:55:55;98774.03;;;3.67;51.08
62055;BME280;48653;51.742;-1.256;2023-03-14T03:58:20;98778.09;;;3.36;51.05
62055;BME280;48653;51.742;-1.256;2023-03-14T04:00:45;98781.10;;;3.61;51.51
62055;BME280;48653;51.742;-1.256;2023-03-14T04:03:10;98779.34;;;3.32;50.82
62055;BME280;48653;51.742;-1.256;2023-03-14T04:05:35;98786.95;;;3.31;51.20
62055;BME280;48653;51.742;-1.256;2023-03-14T04:08:00;98787.66;;;3.28;51.47
62055;BME280;48653;51.742;-1.256;2023-03-14T04:10:25;98793.31;;;3.22;50.74
62055;BME280;48653;51.742;-1.256;2023-03-14T04:12:51;98799.38;;;3.30;50.68
62055;BME280;48653;51.742;-1.256;2023-03-14T04:15:16;98807.50;;;3.42;50.33
62055;BME280;48653;51.742;-1.256;2023-03-14T04:17:41;98810.50;;;3.31;50.60
62055;BME280;48653;51.742;-1.256;2023-03-14T04:20:07;98811.87;;;3.83;49.96
62055;BME280;48653;51.742;-1.256;2023-03-14T04:22:32;98817.10;;;4.26;48.73
62055;BME280;48653;51.742;-1.256;2023-03-14T04:24:57;98821.16;;;3.28;50.17
62055;BME280;48653;51.742;-1.256;2023-03-14T04:27:22;98829.63;;;2.51;50.13
62055;BME280;48653;51.742;-1.256;2023-03-14T04:29:47;98828.76;;;2.95;50.73
62055;BME280;48653;51.742;-1.256;2023-03-14T04:32:13;98837.18;;;3.21;50.03
62055;BME280;48653;51.742;-1.256;2023-03-14T04:34:38;98844.49;;;2.72;50.62
62055;BME280;48653;51.742;-1.256;2023-03-14T04:37:03;98851.21;;;2.78;50.63
62055;BME280;48653;51.742;-1.256;2023-03-14T04:39:29;98858.73;;;3.14;49.81
62055;BME280;48653;51.742;-1.256;2023-03-14T04:41:54;98867.37;;;3.06;50.00
62055;BME280;48653;51.742;-1.256;2023-03-14T04:44:19;98873.60;;;3.26;50.37
62055;BME280;48653;51.742;-1.256;2023-03-14T04:46:44;98881.26;;;3.09;49.91
62055;BME280;48653;51.742;-1.256;2023-03-14T04:49:10;98881.86;;;3.22;49.83
62055;BME280;48653;51.742;-1.256;2023-03-14T04:51:35;98890.49;;;3.26;49.82
62055;BME280;48653;51.742;-1.256;2023-03-14T04:54:00;98892.83;;;3.37;49.51
62055;BME280;48653;51.742;-1.256;2023-03-14T04:56:25;98898.36;;;3.25;50.22
62055;BME280;48653;51.742;-1.256;2023-03-14T04:58:50;98901.68;;;2.43;51.45
62055;BME280;48653;51.742;-1.256;2023-03-14T05:01:15;98910.91;;;2.79;50.65
62055;BME280;48653;51.742;-1.256;2023-03-14T05:03:41;98913.69;;;2.93;51.10
62055;BME280;48653;51.742;-1.256;2023-03-14T05:06:07;98921.38;;;2.64;51.82
62055;BME280;48653;51.742;-1.256;2023-03-14T05:08:32;98924.80;;;2.79;52.06
62055;BME280;48653;51.742;-1.256;2023-03-14T05:10:57;98930.95;;;3.35;50.67
62055;BME280;48653;51.742;-1.256;2023-03-14T05:13:22;98930.67;;;2.67;52.08
62055;BME280;48653;51.742;-1.256;2023-03-14T05:15:47;98935.17;;;2.56;52.20
62055;BME280;48653;51.742;-1.256;2023-03-14T05:18:12;98942.45;;;2.97;51.82
62055;BME280;48653;51.742;-1.256;2023-03-14T05:20:37;98950.36;;;3.01;51.78
62055;BME280;48653;51.742;-1.256;2023-03-14T05:23:02;98952.48;;;3.27;51.68
62055;BME280;48653;51.742;-1.256;2023-03-14T05:25:28;98959.63;;;2.89;51.98
62055;BME280;48653;51.742;-1.256;2023-03-14T05:27:54;98960.75;;;2.89;52.09
62055;BME280;48653;51.742;-1.256;2023-03-14T05:30:18;98958.73;;;3.21;51.19
62055;BME280;48653;51.742;-1.256;2023-03-14T05:32:43;98966.40;;;3.83;50.38
62055;BME280;48653;51.742;-1.256;2023-03-14T05:35:09;98970.10;;;3.61;49.90
62055;BME280;48653;51.742;-1.256;2023-03-14T05:37:34;98978.06;;;3.93;49.87
62055;BME280;48653;51.742;-1.256;2023-03-14T05:39:59;98977.98;;;3.35;50.38
62055;BME280;48653;51.742;-1.256;2023-03-14T05:42:24;98986.27;;;3.27;50.48
62055;BME280;48653;51.742;-1.256;2023-03-14T05:44:49;98999.37;;;3.49;50.49
62055;BME280;48653;51.742;-1.256;2023-03-14T05:47:14;99008.54;;;3.07;51.43
62055;BME280;48653;51.742;-1.256;2023-03-14T05:49:39;99018.31;;;3.52;50.70
62055;BME280;48653;51.742;-1.256;2023-03-14T05:52:05;99015.21;;;2.91;52.01
62055;BME280;48653;51.742;-1.256;2023-03-14T05:54:30;99026.41;;;3.24;51.51
62055;BME280;48653;51.742;-1.256;2023-03-14T05:56:56;99030.21;;;3.46;50.87
62055;BME280;48653;51.742;-1.256;2023-03-14T05:59:21;99029.93;;;2.88;51.67
62055;BME280;48653;51.742;-1.256;2023-03-14T06:01:46;99029.73;;;3.26;51.49
62055;BME280;48653;51.742;-1.256;2023-03-14T06:04:12;99039.66;;;2.99;51.38
62055;BME280;48653;51.742;-1.256;2023-03-14T06:06:37;99053.41;;;2.91;52.40
62055;BME280;48653;51.742;-1.256;2023-03-14T06:09:02;99062.81;;;2.84;52.63
62055;BME280;48653;51.742;-1.256;2023-03-14T06:11:28;99070.02;;;2.96;52.62
62055;BME280;48653;51.742;-1.256;2023-03-14T06:13:53;99079.39;;;3.25;51.66
62055;BME280;48653;51.742;-1.256;2023-03-14T06:16:18;99084.27;;;2.97;52.52
62055;BME280;48653;51.742;-1.256;2023-03-14T06:18:43;99089.24;;;3.09;52.33
62055;BME280;48653;51.742;-1.256;2023-03-14T06:21:09;99098.49;;;2.69;53.83
62055;BME280;48653;51.742;-1.256;2023-03-14T06:23:33;99108.24;;;2.80;53.52
62055;BME280;48653;51.742;-1.256;2023-03-14T06:25:59;99111.88;;;2.52;53.71
62055;BME280;48653;51.742;-1.256;2023-03-14T06:28:24;99118.98;;;3.33;52.32
62055;BME280;48653;51.742;-1.256;2023-03-14T06:30:49;99132.59;;;3.13;52.85
62055;BME280;48653;51.742;-1.256;2023-03-14T06:33:14;99135.67;;;3.12;52.68
62055;BME280;48653;51.742;-1.256;2023-03-14T06:35:40;99142.78;;;2.41;53.97
62055;BME280;48653;51.742;-1.256;2023-03-14T06:38:05;99153.39;;;2.72;52.97
62055;BME280;48653;51.742;-1.256;2023-03-14T06:40:30;99161.83;;;2.80;53.45
62055;BME280;48653;51.742;-1.256;2023-03-14T06:42:55;99168.78;;;3.22;53.05
62055;BME280;48653;51.742;-1.256;2023-03-14T06:45:20;99174.08;;;4.03;51.24
62055;BME280;48653;51.742;-1.256;2023-03-14T06:47:46;99180.99;;;3.93;51.08
62055;BME280;48653;51.742;-1.256;2023-03-14T06:50:12;99192.29;;;3.65;51.52
62055;BME280;48653;51.742;-1.256;2023-03-14T06:52:37;99203.54;;;4.06;50.84
62055;BME280;48653;51.742;-1.256;2023-03-14T06:55:02;99216.08;;;4.69;49.09
62055;BME280;48653;51.742;-1.256;2023-03-14T06:57:27;99229.83;;;5.68;47.84
62055;BME280;48653;51.742;-1.256;2023-03-14T06:59:52;99243.13;;;5.03;48.37
62055;BME280;48653;51.742;-1.256;2023-03-14T07:02:18;99255.66;;;5.03;48.56
62055;BME280;48653;51.742;-1.256;2023-03-14T07:04:43;99259.87;;;3.89;49.99
62055;BME280;48653;51.742;-1.256;2023-03-14T07:07:09;99262.72;;;3.74;51.57
62055;BME280;48653;51.742;-1.256;2023-03-14T07:09:34;99269.13;;;3.18;53.71
62055;BME280;48653;51.742;-1.256;2023-03-14T07:11:58;99275.45;;;3.41;54.13
62055;BME280;48653;51.742;-1.256;2023-03-14T07:14:24;99290.38;;;4.03;52.73
62055;BME280;48653;51.742;-1.256;2023-03-14T07:16:48;99293.00;;;3.75;54.47
62055;BME280;48653;51.742;-1.256;2023-03-14T07:19:14;99308.14;;;2.96;56.20
62055;BME280;48653;51.742;-1.256;2023-03-14T07:21:39;99318.04;;;2.53;58.10
62055;BME280;48653;51.742;-1.256;2023-03-14T07:24:04;99329.88;;;2.77;58.23
62055;BME280;48653;51.742;-1.256;2023-03-14T07:26:29;99339.10;;;3.28;57.72
62055;BME280;48653;51.742;-1.256;2023-03-14T07:28:54;99351.36;;;3.41;57.13
62055;BME280;48653;51.742;-1.256;2023-03-14T07:31:19;99364.32;;;2.94;58.47
62055;BME280;48653;51.742;-1.256;2023-03-14T07:33:45;99369.16;;;2.99;58.38
62055;BME280;48653;51.742;-1.256;2023-03-14T07:36:10;99383.47;;;4.15;55.69
62055;BME280;48653;51.742;-1.256;2023-03-14T07:38:35;99386.92;;;3.58;56.34
62055;BME280;48653;51.742;-1.256;2023-03-14T07:41:01;99397.86;;;4.23;55.95
62055;BME280;48653;51.742;-1.256;2023-03-14T07:43:25;99414.77;;;4.41;55.03
62055;BME280;48653;51.742;-1.256;2023-03-14T07:45:50;99424.86;;;4.53;55.18
62055;BME280;48653;51.742;-1.256;2023-03-14T07:48:16;99434.17;;;4.73;54.57
62055;BME280;48653;51.742;-1.256;2023-03-14T07:50:41;99448.06;;;4.04;56.89
62055;BME280;48653;51.742;-1.256;2023-03-14T07:53:06;99461.80;;;3.13;57.65
62055;BME280;48653;51.742;-1.256;2023-03-14T07:55:31;99475.11;;;2.30;60.05
62055;BME280;48653;51.742;-1.256;2023-03-14T07:57:56;99478.26;;;2.36;60.22
62055;BME280;48653;51.742;-1.256;2023-03-14T08:00:21;99492.07;;;2.75;60.28
62055;BME280;48653;51.742;-1.256;2023-03-14T08:02:46;99501.74;;;2.20;60.37
62055;BME280;48653;51.742;-1.256;2023-03-14T08:05:12;99516.26;;;1.72;62.18
62055;BME280;48653;51.742;-1.256;2023-03-14T08:07:37;99531.47;;;2.26;61.44
62055;BME280;48653;51.742;-1.256;2023-03-14T08:10:03;99530.08;;;1.88;62.19
62055;BME280;48653;51.742;-1.256;2023-03-14T08:12:27;99540.79;;;1.83;61.44
62055;BME280;48653;51.742;-1.256;2023-03-14T08:14:52;99554.20;;;2.55;60.84
62055;BME280;48653;51.742;-1.256;2023-03-14T08:17:17;99564.39;;;1.54;62.69
62055;BME280;48653;51.742;-1.256;2023-03-14T08:19:42;99570.80;;;2.80;60.64
62055;BME280;48653;51.742;-1.256;2023-03-14T08:22:07;99579.44;;;4.10;57.68
62055;BME280;48653;51.742;-1.256;2023-03-14T08:24:33;99593.72;;;2.75;59.88
62055;BME280;48653;51.742;-1.256;2023-03-14T08:26:57;99602.66;;;3.78;57.70
62055;BME280;48653;51.742;-1.256;2023-03-14T08:29:23;99625.29;;;2.76;58.87
62055;BME280;48653;51.742;-1.256;2023-03-14T08:31:48;99619.21;;;2.45;59.74
62055;BME280;48653;51.742;-1.256;2023-03-14T08:34:13;99625.59;;;2.90;58.31
62055;BME280;48653;51.742;-1.256;2023-03-14T08:36:38;99635.95;;;3.44;57.64
62055;BME280;48653;51.742;-1.256;2023-03-14T08:39:03;99644.97;;;2.86;57.94
62055;BME280;48653;51.742;-1.256;2023-03-14T08:41:28;99657.84;;;3.21;57.64
62055;BME280;48653;51.742;-1.256;2023-03-14T08:43:53;99663.74;;;2.66;59.08
62055;BME280;48653;51.742;-1.256;2023-03-14T08:46:18;99671.59;;;2.80;58.85
62055;BME280;48653;51.742;-1.256;2023-03-14T08:48:44;99679.33;;;3.17;58.10
62055;BME280;48653;51.742;-1.256;2023-03-14T08:51:10;99688.48;;;3.10;57.75
62055;BME280;48653;51.742;-1.256;2023-03-14T08:53:34;99695.89;;;2.57;58.64
62055;BME280;48653;51.742;-1.256;2023-03-14T08:55:59;99710.23;;;2.90;57.82
62055;BME280;48653;51.742;-1.256;2023-03-14T08:58:24;99716.51;;;2.92;58.18
62055;BME280;48653;51.742;-1.256;2023-03-14T09:00:49;99729.63;;;3.59;56.78
62055;BME280;48653;51.742;-1.256;2023-03-14T09:03:14;99734.14;;;2.75;58.66
62055;BME280;48653;51.742;-1.256;2023-03-14T09:05:39;99742.02;;;3.29;57.95
62055;BME280;48653;51.742;-1.256;2023-03-14T09:08:05;99743.74;;;3.14;58.06
62055;BME280;48653;51.742;-1.256;2023-03-14T09:10:30;99746.47;;;3.75;55.49
62055;BME280;48653;51.742;-1.256;2023-03-14T09:12:55;99752.26;;;4.16;55.69
62055;BME280;48653;51.742;-1.256;2023-03-14T09:15:20;99752.98;;;3.81;55.24
62055;BME280;48653;51.742;-1.256;2023-03-14T09:17:45;99757.18;;;3.89;55.90
62055;BME280;48653;51.742;-1.256;2023-03-14T09:20:11;99763.92;;;3.83;55.82
62055;BME280;48653;51.742;-1.256;2023-03-14T09:22:36;99778.47;;;4.55;55.09
62055;BME280;48653;51.742;-1.256;2023-03-14T09:25:01;99786.20;;;4.19;55.58
62055;BME280;48653;51.742;-1.256;2023-03-14T09:27:26;99793.94;;;4.80;53.43
62055;BME280;48653;51.742;-1.256;2023-03-14T09:29:52;99791.19;;;5.23;52.68
62055;BME280;48653;51.742;-1.256;2023-03-14T09:32:17;99798.61;;;5.25;53.33
62055;BME280;48653;51.742;-1.256;2023-03-14T09:34:43;99811.28;;;4.58;53.47
62055;BME280;48653;51.742;-1.256;2023-03-14T09:37:08;99818.24;;;4.85;52.87
62055;BME280;48653;51.742;-1.256;2023-03-14T09:39:33;99823.52;;;5.22;52.52
62055;BME280;48653;51.742;-1.256;2023-03-14T09:42:03;99830.90;;;5.35;52.56
62055;BME280;48653;51.742;-1.256;2023-03-14T09:44:27;99840.29;;;4.44;53.01
62055;BME280;48653;51.742;-1.256;2023-03-14T09:46:52;99845.57;;;5.32;52.05
62055;BME280;48653;51.742;-1.256;2023-03-14T09:49:20;99843.41;;;5.73;51.31
62055;BME280;48653;51.742;-1.256;2023-03-14T09:51:41;99856.81;;;5.05;51.27
62055;BME280;48653;51.742;-1.256;2023-03-14T09:54:14;99856.99;;;5.76;51.15
62055;BME280;48653;51.742;-1.256;2023-03-14T09:56:33;99862.43;;;6.13;49.44
62055;BME280;48653;51.742;-1.256;2023-03-14T09:58:59;99869.23;;;7.05;48.03
62055;BME280;48653;51.742;-1.256;2023-03-14T10:01:25;99873.32;;;6.58;48.95
62055;BME280;48653;51.742;-1.256;2023-03-14T10:03:47;99874.37;;;6.33;47.80
62055;BME280;48653;51.742;-1.256;2023-03-14T10:06:12;99883.66;;;6.42;47.89
62055;BME280;48653;51.742;-1.256;2023-03-14T10:08:39;99888.11;;;6.24;45.87
62055;BME280;48653;51.742;-1.256;2023-03-14T10:11:02;99895.55;;;6.90;46.54
62055;BME280;48653;51.742;-1.256;2023-03-14T10:13:27;99896.76;;;7.85;44.26
62055;BME280;48653;51.742;-1.256;2023-03-14T10:15:54;99908.60;;;9.29;43.88
62055;BME280;48653;51.742;-1.256;2023-03-14T10:18:17;99918.17;;;9.07;43.73
62055;BME280;48653;51.742;-1.256;2023-03-14T10:20:44;99925.69;;;9.28;42.46
62055;BME280;48653;51.742;-1.256;2023-03-14T10:23:20;99928.44;;;10.43;39.95
62055;BME280;48653;51.742;-1.256;2023-03-14T10:25:34;99932.23;;;10.31;40.69
62055;BME280;48653;51.742;-1.256;2023-03-14T10:27:58;99935.08;;;9.52;40.50
62055;BME280;48653;51.742;-1.256;2023-03-14T10:30:33;99936.84;;;10.16;40.44
62055;BME280;48653;51.742;-1.256;2023-03-14T10:32:48;99936.51;;;11.30;38.98
62055;BME280;48653;51.742;-1.256;2023-03-14T10:35:21;99948.51;;;10.84;37.78
62055;BME280;48653;51.742;-1.256;2023-03-14T10:40:03;99966.61;;;9.86;38.99
62055;BME280;48653;51.742;-1.256;2023-03-14T10:42:29;99971.07;;;10.33;39.26
62055;BME280;48653;51.742;-1.256;2023-03-14T10:44:55;99966.87;;;10.62;37.69
62055;BME280;48653;51.742;-1.256;2023-03-14T10:47:21;99978.92;;;11.91;36.64
62055;BME280;48653;51.742;-1.256;2023-03-14T10:49:43;99988.77;;;9.76;38.12
62055;BME280;48653;51.742;-1.256;2023-03-14T10:52:15;99984.91;;;10.98;38.50
62055;BME280;48653;51.742;-1.256;2023-03-14T10:54:33;99992.43;;;10.64;37.22
62055;BME280;48653;51.742;-1.256;2023-03-14T10:57:00;100003.72;;;10.59;37.08
62055;BME280;48653;51.742;-1.256;2023-03-14T10:59:23;100007.45;;;9.40;37.65
62055;BME280;48653;51.742;-1.256;2023-03-14T11:01:53;100024.01;;;9.40;38.83
62055;BME280;48653;51.742;-1.256;2023-03-14T11:04:21;100026.03;;;8.76;39.30
62055;BME280;48653;51.742;-1.256;2023-03-14T11:06:43;100027.49;;;9.64;39.35
62055;BME280;48653;51.742;-1.256;2023-03-14T11:09:11;100040.31;;;9.35;40.60
62055;BME280;48653;51.742;-1.256;2023-03-14T11:11:30;100042.27;;;9.43;39.42
62055;BME280;48653;51.742;-1.256;2023-03-14T11:14:04;100050.23;;;9.23;39.36
62055;BME280;48653;51.742;-1.256;2023-03-14T11:16:24;100051.67;;;9.25;39.68
62055;BME280;48653;51.742;-1.256;2023-03-14T11:21:13;100059.86;;;8.31;39.13
62055;BME280;48653;51.742;-1.256;2023-03-14T11:23:42;100061.63;;;8.15;39.90
62055;BME280;48653;51.742;-1.256;2023-03-14T11:26:04;100067.71;;;8.55;39.46
62055;BME280;48653;51.742;-1.256;2023-03-14T11:28:30;100075.88;;;7.91;40.32
62055;BME280;48653;51.742;-1.256;2023-03-14T11:30:52;100078.84;;;7.73;40.60
62055;BME280;48653;51.742;-1.256;2023-03-14T11:33:17;100079.14;;;7.59;40.74
62055;BME280;48653;51.742;-1.256;2023-03-14T11:35:45;100076.67;;;7.41;41.91
62055;BME280;48653;51.742;-1.256;2023-03-14T11:38:18;100070.03;;;7.88;41.43
62055;BME280;48653;51.742;-1.256;2023-03-14T11:40:32;100070.63;;;10.05;37.62
62055;BME280;48653;51.742;-1.256;2023-03-14T11:43:04;100078.28;;;9.49;36.47
62055;BME280;48653;51.742;-1.256;2023-03-14T11:45:26;100083.41;;;10.35;36.66
62055;BME280;48653;51.742;-1.256;2023-03-14T11:47:48;100086.90;;;11.32;34.69
62055;BME280;48653;51.742;-1.256;2023-03-14T11:50:15;100089.85;;;11.93;34.38
62055;BME280;48653;51.742;-1.256;2023-03-14T11:52:38;100105.99;;;11.82;33.18
62055;BME280;48653;51.742;-1.256;2023-03-14T11:55:06;100112.41;;;10.82;33.70
62055;BME280;48653;51.742;-1.256;2023-03-14T11:57:26;100118.45;;;10.84;33.47
62055;BME280;48653;51.742;-1.256;2023-03-14T11:59:55;100118.77;;;10.75;33.35
62055;BME280;48653;51.742;-1.256;2023-03-14T12:02:22;100124.63;;;10.50;33.64
62055;BME280;48653;51.742;-1.256;2023-03-14T12:04:50;100120.95;;;9.43;34.85
62055;BME280;48653;51.742;-1.256;2023-03-14T12:07:13;100125.21;;;8.73;35.39
62055;BME280;48653;51.742;-1.256;2023-03-14T12:09:31;100130.15;;;9.45;35.65
62055;BME280;48653;51.742;-1.256;2023-03-14T12:11:58;100136.13;;;10.48;35.24
62055;BME280;48653;51.742;-1.256;2023-03-14T12:14:24;100137.31;;;9.93;33.56
62055;BME280;48653;51.742;-1.256;2023-03-14T12:16:47;100138.30;;;10.11;34.06
62055;BME280;48653;51.742;-1.256;2023-03-14T12:21:45;100134.60;;;9.58;33.32
62055;BME280;48653;51.742;-1.256;2023-03-14T12:24:02;100144.20;;;9.05;33.10
62055;BME280;48653;51.742;-1.256;2023-03-14T12:26:50;100145.96;;;9.06;34.01
62055;BME280;48653;51.742;-1.256;2023-03-14T12:33:42;100151.55;;;9.24;32.58
62055;BME280;48653;51.742;-1.256;2023-03-14T12:38:45;100156.86;;;8.56;33.75
62055;BME280;48653;51.742;-1.256;2023-03-14T12:41:04;100160.66;;;9.33;32.70
62055;BME280;48653;51.742;-1.256;2023-03-14T12:43:26;100159.67;;;9.18;31.83
62055;BME280;48653;51.742;-1.256;2023-03-14T12:48:20;100159.70;;;9.32;32.90
62055;BME280;48653;51.742;-1.256;2023-03-14T12:50:43;100162.13;;;9.19;32.95
62055;BME280;48653;51.742;-1.256;2023-03-14T12:53:21;100165.85;;;9.23;33.20
62055;BME280;48653;51.742;-1.256;2023-03-14T12:55:33;100167.68;;;9.44;32.97
62055;BME280;48653;51.742;-1.256;2023-03-14T12:57:56;100168.70;;;9.66;32.94
62055;BME280;48653;51.742;-1.256;2023-03-14T13:00:20;100172.25;;;9.64;31.43
62055;BME280;48653;51.742;-1.256;2023-03-14T13:02:44;100165.47;;;10.61;31.24
62055;BME280;48653;51.742;-1.256;2023-03-14T13:05:11;100166.49;;;10.94;29.56
62055;BME280;48653;51.742;-1.256;2023-03-14T13:07:39;100168.03;;;10.36;30.83